sensor_id;sensor_type;location;lat;lon;timestamp;P1;durP1;ratioP1;P2;durP2;ratioP2
32032;SDS011;31720;52.638;9.216;2022-09-13T00:00:48;2.65;;;1.70;;
32032;SDS011;31720;52.638;9.216;2022-09-13T00:03:50;2.67;;;1.67;;
32032;SDS011;31720;52.638;9.216;2022-09-13T00:06:53;3.38;;;1.83;;
32032;SDS011;31720;52.638;9.216;2022-09-13T00:09:54;1.92;;;1.65;;
32032;SDS011;31720;52.638;9.216;2022-09-13T00:12:56;3.30;;;1.70;;
32032;SDS011;31720;52.638;9.216;2022-09-13T00:15:57;2.33;;;1.65;;
32032;SDS011;31720;52.638;9.216;2022-09-13T00:19:00;2.20;;;1.58;;
32032;SDS011;31720;52.638;9.216;2022-09-13T00:22:02;2.38;;;1.67;;
32032;SDS011;31720;52.638;9.216;2022-09-13T00:25:06;3.15;;;2.03;;
32032;SDS011;31720;52.638;9.216;2022-09-13T00:28:08;4.18;;;2.10;;
32032;SDS011;31720;52.638;9.216;2022-09-13T00:31:09;3.85;;;1.85;;
32032;SDS011;31720;52.638;9.216;2022-09-13T00:34:11;4.18;;;1.90;;
32032;SDS011;31720;52.638;9.216;2022-09-13T00:37:13;2.88;;;1.73;;
32032;SDS011;31720;52.638;9.216;2022-09-13T00:40:15;3.92;;;2.13;;
32032;SDS011;31720;52.638;9.216;2022-09-13T00:43:17;3.85;;;2.33;;
32032;SDS011;31720;52.638;9.216;2022-09-13T00:46:22;3.53;;;1.65;;
32032;SDS011;31720;52.638;9.216;2022-09-13T00:49:28;3.75;;;1.90;;
32032;SDS011;31720;52.638;9.216;2022-09-13T00:52:37;3.30;;;1.95;;
32032;SDS011;31720;52.638;9.216;2022-09-13T00:55:41;3.55;;;1.85;;
32032;SDS011;31720;52.638;9.216;2022-09-13T00:58:45;4.15;;;2.03;;
32032;SDS011;31720;52.638;9.216;2022-09-13T01:01:51;2.95;;;2.05;;
32032;SDS011;31720;52.638;9.216;2022-09-13T01:04:54;2.85;;;1.77;;
32032;SDS011;31720;52.638;9.216;2022-09-13T01:07:57;2.97;;;1.58;;
32032;SDS011;31720;52.638;9.216;2022-09-13T01:11:00;3.10;;;1.65;;
32032;SDS011;31720;52.638;9.216;2022-09-13T01:14:05;3.95;;;1.98;;
32032;SDS011;31720;52.638;9.216;2022-09-13T01:17:09;4.35;;;1.88;;
32032;SDS011;31720;52.638;9.216;2022-09-13T01:20:10;3.05;;;1.83;;
32032;SDS011;31720;52.638;9.216;2022-09-13T01:23:24;4.53;;;1.67;;
32032;SDS011;31720;52.638;9.216;2022-09-13T01:27:03;2.72;;;1.80;;
32032;SDS011;31720;52.638;9.216;2022-09-13T01:30:26;2.42;;;1.70;;
32032;SDS011;31720;52.638;9.216;2022-09-13T01:33:35;2.85;;;1.40;;
32032;SDS011;31720;52.638;9.216;2022-09-13T01:36:57;4.22;;;2.47;;
32032;SDS011;31720;52.638;9.216;2022-09-13T01:40:16;4.90;;;1.80;;
32032;SDS011;31720;52.638;9.216;2022-09-13T01:43:30;3.08;;;1.90;;
32032;SDS011;31720;52.638;9.216;2022-09-13T01:46:43;3.17;;;1.95;;
32032;SDS011;31720;52.638;9.216;2022-09-13T01:49:52;4.65;;;2.20;;
32032;SDS011;31720;52.638;9.216;2022-09-13T01:53:06;4.50;;;2.33;;
32032;SDS011;31720;52.638;9.216;2022-09-13T01:56:15;3.17;;;2.17;;
32032;SDS011;31720;52.638;9.216;2022-09-13T01:59:23;5.88;;;2.22;;
32032;SDS011;31720;52.638;9.216;2022-09-13T02:02:35;4.25;;;2.45;;
32032;SDS011;31720;52.638;9.216;2022-09-13T02:05:42;4.82;;;2.63;;
32032;SDS011;31720;52.638;9.216;2022-09-13T02:08:47;7.55;;;2.50;;
32032;SDS011;31720;52.638;9.216;2022-09-13T02:11:53;4.15;;;2.40;;
32032;SDS011;31720;52.638;9.216;2022-09-13T02:15:02;3.97;;;2.28;;
32032;SDS011;31720;52.638;9.216;2022-09-13T02:18:11;3.20;;;2.30;;
32032;SDS011;31720;52.638;9.216;2022-09-13T02:21:17;4.53;;;2.70;;
32032;SDS011;31720;52.638;9.216;2022-09-13T02:24:22;4.22;;;2.67;;
32032;SDS011;31720;52.638;9.216;2022-09-13T02:27:30;3.78;;;2.50;;
32032;SDS011;31720;52.638;9.216;2022-09-13T02:30:34;4.13;;;2.40;;
32032;SDS011;31720;52.638;9.216;2022-09-13T02:33:43;4.68;;;2.72;;
32032;SDS011;31720;52.638;9.216;2022-09-13T02:36:47;4.88;;;2.53;;
32032;SDS011;31720;52.638;9.216;2022-09-13T02:39:52;3.88;;;2.42;;
32032;SDS011;31720;52.638;9.216;2022-09-13T02:42:58;5.45;;;3.08;;
32032;SDS011;31720;52.638;9.216;2022-09-13T02:46:09;4.60;;;2.70;;
32032;SDS011;31720;52.638;9.216;2022-09-13T02:49:21;5.47;;;2.90;;
32032;SDS011;31720;52.638;9.216;2022-09-13T02:52:32;5.22;;;2.58;;
32032;SDS011;31720;52.638;9.216;2022-09-13T02:55:43;6.13;;;2.88;;
32032;SDS011;31720;52.638;9.216;2022-09-13T02:58:52;7.53;;;3.20;;
32032;SDS011;31720;52.638;9.216;2022-09-13T03:02:01;7.33;;;3.00;;
32032;SDS011;31720;52.638;9.216;2022-09-13T03:05:07;5.18;;;3.03;;
32032;SDS011;31720;52.638;9.216;2022-09-13T03:08:09;9.35;;;3.33;;
32032;SDS011;31720;52.638;9.216;2022-09-13T03:11:13;4.72;;;2.90;;
32032;SDS011;31720;52.638;9.216;2022-09-13T03:14:28;5.93;;;3.17;;
32032;SDS011;31720;52.638;9.216;2022-09-13T03:17:40;11.57;;;3.20;;
32032;SDS011;31720;52.638;9.216;2022-09-13T03:20:55;5.70;;;3.20;;
32032;SDS011;31720;52.638;9.216;2022-09-13T03:24:07;6.40;;;3.25;;
32032;SDS011;31720;52.638;9.216;2022-09-13T03:27:18;5.75;;;2.80;;
32032;SDS011;31720;52.638;9.216;2022-09-13T03:30:29;4.57;;;2.75;;
32032;SDS011;31720;52.638;9.216;2022-09-13T03:33:35;7.20;;;3.83;;
32032;SDS011;31720;52.638;9.216;2022-09-13T03:36:46;6.82;;;3.63;;
32032;SDS011;31720;52.638;9.216;2022-09-13T03:39:55;5.93;;;3.15;;
32032;SDS011;31720;52.638;9.216;2022-09-13T03:43:00;5.68;;;2.90;;
32032;SDS011;31720;52.638;9.216;2022-09-13T03:46:07;5.43;;;3.17;;
32032;SDS011;31720;52.638;9.216;2022-09-13T03:49:11;5.75;;;2.90;;
32032;SDS011;31720;52.638;9.216;2022-09-13T03:52:16;4.90;;;3.05;;
32032;SDS011;31720;52.638;9.216;2022-09-13T03:55:18;8.02;;;2.83;;
32032;SDS011;31720;52.638;9.216;2022-09-13T03:58:21;4.80;;;3.10;;
32032;SDS011;31720;52.638;9.216;2022-09-13T04:01:23;6.80;;;3.58;;
32032;SDS011;31720;52.638;9.216;2022-09-13T04:04:25;4.78;;;3.08;;
32032;SDS011;31720;52.638;9.216;2022-09-13T04:07:28;5.95;;;3.30;;
32032;SDS011;31720;52.638;9.216;2022-09-13T04:10:29;4.40;;;2.85;;
32032;SDS011;31720;52.638;9.216;2022-09-13T04:13:31;5.47;;;3.25;;
32032;SDS011;31720;52.638;9.216;2022-09-13T04:16:32;6.03;;;3.28;;
32032;SDS011;31720;52.638;9.216;2022-09-13T04:19:33;5.30;;;3.22;;
32032;SDS011;31720;52.638;9.216;2022-09-13T04:22:36;7.47;;;3.47;;
32032;SDS011;31720;52.638;9.216;2022-09-13T04:25:37;4.95;;;3.22;;
32032;SDS011;31720;52.638;9.216;2022-09-13T04:28:39;11.40;;;3.40;;
32032;SDS011;31720;52.638;9.216;2022-09-13T04:31:40;6.60;;;3.55;;
32032;SDS011;31720;52.638;9.216;2022-09-13T04:34:42;7.72;;;3.05;;
32032;SDS011;31720;52.638;9.216;2022-09-13T04:37:45;4.30;;;2.78;;
32032;SDS011;31720;52.638;9.216;2022-09-13T04:40:50;4.55;;;3.15;;
32032;SDS011;31720;52.638;9.216;2022-09-13T04:43:52;7.18;;;3.45;;
32032;SDS011;31720;52.638;9.216;2022-09-13T04:46:53;8.10;;;4.05;;
32032;SDS011;31720;52.638;9.216;2022-09-13T04:49:55;6.15;;;3.22;;
32032;SDS011;31720;52.638;9.216;2022-09-13T04:52:58;6.15;;;3.42;;
32032;SDS011;31720;52.638;9.216;2022-09-13T04:55:59;5.35;;;3.30;;
32032;SDS011;31720;52.638;9.216;2022-09-13T04:59:01;5.22;;;3.35;;
32032;SDS011;31720;52.638;9.216;2022-09-13T05:02:03;5.63;;;3.10;;
32032;SDS011;31720;52.638;9.216;2022-09-13T05:05:04;6.57;;;3.58;;
32032;SDS011;31720;52.638;9.216;2022-09-13T05:08:08;6.93;;;3.20;;
32032;SDS011;31720;52.638;9.216;2022-09-13T05:11:10;6.38;;;3.45;;
32032;SDS011;31720;52.638;9.216;2022-09-13T05:14:12;8.63;;;4.18;;
32032;SDS011;31720;52.638;9.216;2022-09-13T05:17:13;9.32;;;4.28;;
32032;SDS011;31720;52.638;9.216;2022-09-13T05:20:15;9.85;;;3.65;;
32032;SDS011;31720;52.638;9.216;2022-09-13T05:23:17;5.85;;;3.72;;
32032;SDS011;31720;52.638;9.216;2022-09-13T05:26:19;7.35;;;3.83;;
32032;SDS011;31720;52.638;9.216;2022-09-13T05:29:21;6.88;;;3.63;;
32032;SDS011;31720;52.638;9.216;2022-09-13T05:32:22;7.32;;;3.78;;
32032;SDS011;31720;52.638;9.216;2022-09-13T05:35:23;6.25;;;3.38;;
32032;SDS011;31720;52.638;9.216;2022-09-13T05:38:26;11.23;;;3.75;;
32032;SDS011;31720;52.638;9.216;2022-09-13T05:41:27;7.63;;;4.18;;
32032;SDS011;31720;52.638;9.216;2022-09-13T05:44:29;10.20;;;4.50;;
32032;SDS011;31720;52.638;9.216;2022-09-13T05:47:30;4.88;;;3.38;;
32032;SDS011;31720;52.638;9.216;2022-09-13T05:50:35;7.80;;;4.05;;
32032;SDS011;31720;52.638;9.216;2022-09-13T05:53:39;5.70;;;3.40;;
32032;SDS011;31720;52.638;9.216;2022-09-13T05:56:42;7.47;;;3.33;;
32032;SDS011;31720;52.638;9.216;2022-09-13T05:59:43;5.70;;;3.58;;
32032;SDS011;31720;52.638;9.216;2022-09-13T06:02:45;7.97;;;4.07;;
32032;SDS011;31720;52.638;9.216;2022-09-13T06:05:46;9.90;;;4.38;;
32032;SDS011;31720;52.638;9.216;2022-09-13T06:08:51;7.63;;;3.97;;
32032;SDS011;31720;52.638;9.216;2022-09-13T06:11:54;6.40;;;3.88;;
32032;SDS011;31720;52.638;9.216;2022-09-13T06:14:55;7.60;;;4.53;;
32032;SDS011;31720;52.638;9.216;2022-09-13T06:17:56;7.03;;;3.95;;
32032;SDS011;31720;52.638;9.216;2022-09-13T06:20:58;11.02;;;4.35;;
32032;SDS011;31720;52.638;9.216;2022-09-13T06:24:02;6.80;;;3.65;;
32032;SDS011;31720;52.638;9.216;2022-09-13T06:27:03;12.52;;;4.20;;
32032;SDS011;31720;52.638;9.216;2022-09-13T06:30:05;7.13;;;4.43;;
32032;SDS011;31720;52.638;9.216;2022-09-13T06:33:08;9.30;;;4.88;;
32032;SDS011;31720;52.638;9.216;2022-09-13T06:36:10;10.68;;;5.57;;
32032;SDS011;31720;52.638;9.216;2022-09-13T06:39:14;13.68;;;5.93;;
32032;SDS011;31720;52.638;9.216;2022-09-13T06:42:16;10.75;;;5.35;;
32032;SDS011;31720;52.638;9.216;2022-09-13T06:45:17;12.25;;;5.68;;
32032;SDS011;31720;52.638;9.216;2022-09-13T06:48:18;12.20;;;5.65;;
32032;SDS011;31720;52.638;9.216;2022-09-13T06:51:20;12.85;;;6.18;;
32032;SDS011;31720;52.638;9.216;2022-09-13T06:54:25;11.75;;;6.13;;
32032;SDS011;31720;52.638;9.216;2022-09-13T06:57:28;12.02;;;6.03;;
32032;SDS011;31720;52.638;9.216;2022-09-13T07:00:30;11.23;;;5.85;;
32032;SDS011;31720;52.638;9.216;2022-09-13T07:03:31;12.05;;;5.22;;
32032;SDS011;31720;52.638;9.216;2022-09-13T07:06:33;8.70;;;4.85;;
32032;SDS011;31720;52.638;9.216;2022-09-13T07:09:37;8.48;;;4.20;;
32032;SDS011;31720;52.638;9.216;2022-09-13T07:12:42;9.00;;;5.70;;
32032;SDS011;31720;52.638;9.216;2022-09-13T07:15:43;10.40;;;5.63;;
32032;SDS011;31720;52.638;9.216;2022-09-13T07:18:49;8.45;;;4.70;;
32032;SDS011;31720;52.638;9.216;2022-09-13T07:21:51;10.43;;;5.32;;
32032;SDS011;31720;52.638;9.216;2022-09-13T07:24:54;15.65;;;6.50;;
32032;SDS011;31720;52.638;9.216;2022-09-13T07:27:56;11.95;;;6.28;;
32032;SDS011;31720;52.638;9.216;2022-09-13T07:31:03;10.02;;;5.43;;
32032;SDS011;31720;52.638;9.216;2022-09-13T07:34:05;11.45;;;5.45;;
32032;SDS011;31720;52.638;9.216;2022-09-13T07:37:08;8.13;;;4.70;;
32032;SDS011;31720;52.638;9.216;2022-09-13T07:40:11;13.23;;;6.63;;
32032;SDS011;31720;52.638;9.216;2022-09-13T07:43:12;10.52;;;6.05;;
32032;SDS011;31720;52.638;9.216;2022-09-13T07:46:15;11.65;;;6.63;;
32032;SDS011;31720;52.638;9.216;2022-09-13T07:49:18;14.57;;;6.82;;
32032;SDS011;31720;52.638;9.216;2022-09-13T07:52:19;12.38;;;6.35;;
32032;SDS011;31720;52.638;9.216;2022-09-13T07:55:22;14.82;;;6.68;;
32032;SDS011;31720;52.638;9.216;2022-09-13T07:58:23;11.23;;;6.22;;
32032;SDS011;31720;52.638;9.216;2022-09-13T08:01:25;14.07;;;6.38;;
32032;SDS011;31720;52.638;9.216;2022-09-13T08:04:27;13.65;;;6.68;;
32032;SDS011;31720;52.638;9.216;2022-09-13T08:07:29;14.95;;;7.43;;
32032;SDS011;31720;52.638;9.216;2022-09-13T08:10:33;13.48;;;7.70;;
32032;SDS011;31720;52.638;9.216;2022-09-13T08:13:34;14.55;;;7.65;;
32032;SDS011;31720;52.638;9.216;2022-09-13T08:16:36;16.58;;;7.68;;
32032;SDS011;31720;52.638;9.216;2022-09-13T08:19:38;13.90;;;7.13;;
32032;SDS011;31720;52.638;9.216;2022-09-13T08:22:39;16.35;;;7.05;;
32032;SDS011;31720;52.638;9.216;2022-09-13T08:25:42;14.20;;;7.72;;
32032;SDS011;31720;52.638;9.216;2022-09-13T08:28:43;17.85;;;7.28;;
32032;SDS011;31720;52.638;9.216;2022-09-13T08:31:44;15.02;;;7.95;;
32032;SDS011;31720;52.638;9.216;2022-09-13T08:34:46;17.50;;;8.63;;
32032;SDS011;31720;52.638;9.216;2022-09-13T08:37:47;17.95;;;8.88;;
32032;SDS011;31720;52.638;9.216;2022-09-13T08:40:51;15.48;;;8.52;;
32032;SDS011;31720;52.638;9.216;2022-09-13T08:43:56;18.17;;;8.90;;
32032;SDS011;31720;52.638;9.216;2022-09-13T08:47:03;19.35;;;8.38;;
32032;SDS011;31720;52.638;9.216;2022-09-13T08:50:20;21.92;;;10.15;;
32032;SDS011;31720;52.638;9.216;2022-09-13T08:53:25;20.95;;;10.00;;
32032;SDS011;31720;52.638;9.216;2022-09-13T08:56:43;20.13;;;9.35;;
32032;SDS011;31720;52.638;9.216;2022-09-13T08:59:51;14.98;;;7.72;;
32032;SDS011;31720;52.638;9.216;2022-09-13T09:03:01;19.50;;;10.00;;
32032;SDS011;31720;52.638;9.216;2022-09-13T09:06:11;20.17;;;10.00;;
32032;SDS011;31720;52.638;9.216;2022-09-13T09:09:15;17.02;;;8.75;;
32032;SDS011;31720;52.638;9.216;2022-09-13T09:12:22;19.27;;;8.57;;
32032;SDS011;31720;52.638;9.216;2022-09-13T09:15:28;19.05;;;8.27;;
32032;SDS011;31720;52.638;9.216;2022-09-13T09:18:35;12.55;;;6.68;;
32032;SDS011;31720;52.638;9.216;2022-09-13T09:21:39;13.07;;;6.88;;
32032;SDS011;31720;52.638;9.216;2022-09-13T09:24:44;10.10;;;6.65;;
32032;SDS011;31720;52.638;9.216;2022-09-13T09:27:49;9.75;;;5.80;;
32032;SDS011;31720;52.638;9.216;2022-09-13T09:30:53;12.23;;;6.40;;
32032;SDS011;31720;52.638;9.216;2022-09-13T09:34:04;13.70;;;7.15;;
32032;SDS011;31720;52.638;9.216;2022-09-13T09:37:15;11.77;;;7.03;;
32032;SDS011;31720;52.638;9.216;2022-09-13T09:40:20;11.02;;;5.53;;
32032;SDS011;31720;52.638;9.216;2022-09-13T09:43:24;12.80;;;6.90;;
32032;SDS011;31720;52.638;9.216;2022-09-13T09:46:31;11.25;;;5.78;;
32032;SDS011;31720;52.638;9.216;2022-09-13T09:49:36;12.52;;;6.38;;
32032;SDS011;31720;52.638;9.216;2022-09-13T09:53:00;10.57;;;6.13;;
32032;SDS011;31720;52.638;9.216;2022-09-13T09:56:14;11.75;;;5.80;;
32032;SDS011;31720;52.638;9.216;2022-09-13T09:59:25;8.68;;;5.35;;
32032;SDS011;31720;52.638;9.216;2022-09-13T10:02:28;10.32;;;5.50;;
32032;SDS011;31720;52.638;9.216;2022-09-13T10:05:29;12.88;;;5.50;;
32032;SDS011;31720;52.638;9.216;2022-09-13T10:08:32;12.63;;;5.63;;
32032;SDS011;31720;52.638;9.216;2022-09-13T10:11:37;9.90;;;5.90;;
32032;SDS011;31720;52.638;9.216;2022-09-13T10:14:41;12.55;;;5.10;;
32032;SDS011;31720;52.638;9.216;2022-09-13T10:17:59;5.45;;;3.65;;
32032;SDS011;31720;52.638;9.216;2022-09-13T10:21:04;8.13;;;5.07;;
32032;SDS011;31720;52.638;9.216;2022-09-13T10:24:14;7.05;;;3.55;;
32032;SDS011;31720;52.638;9.216;2022-09-13T10:27:22;9.10;;;3.65;;
32032;SDS011;31720;52.638;9.216;2022-09-13T10:30:31;9.07;;;5.35;;
32032;SDS011;31720;52.638;9.216;2022-09-13T10:33:37;7.00;;;3.42;;
32032;SDS011;31720;52.638;9.216;2022-09-13T10:36:43;5.85;;;3.78;;
32032;SDS011;31720;52.638;9.216;2022-09-13T10:39:58;6.78;;;3.55;;
32032;SDS011;31720;52.638;9.216;2022-09-13T10:43:03;7.53;;;3.90;;
32032;SDS011;31720;52.638;9.216;2022-09-13T10:46:20;5.43;;;3.20;;
32032;SDS011;31720;52.638;9.216;2022-09-13T10:49:35;5.20;;;3.23;;
32032;SDS011;31720;52.638;9.216;2022-09-13T10:52:42;5.93;;;3.80;;
32032;SDS011;31720;52.638;9.216;2022-09-13T10:55:44;6.35;;;2.92;;
32032;SDS011;31720;52.638;9.216;2022-09-13T10:58:55;3.55;;;1.90;;
32032;SDS011;31720;52.638;9.216;2022-09-13T11:02:29;6.75;;;2.00;;
32032;SDS011;31720;52.638;9.216;2022-09-13T11:05:45;4.57;;;1.35;;
32032;SDS011;31720;52.638;9.216;2022-09-13T11:08:58;5.18;;;2.15;;
32032;SDS011;31720;52.638;9.216;2022-09-13T11:12:10;3.17;;;0.90;;
32032;SDS011;31720;52.638;9.216;2022-09-13T11:15:21;0.95;;;0.85;;
32032;SDS011;31720;52.638;9.216;2022-09-13T11:18:37;2.25;;;0.60;;
32032;SDS011;31720;52.638;9.216;2022-09-13T11:21:54;1.05;;;0.65;;
32032;SDS011;31720;52.638;9.216;2022-09-13T11:25:16;3.83;;;0.68;;
32032;SDS011;31720;52.638;9.216;2022-09-13T11:28:37;0.95;;;0.75;;
32032;SDS011;31720;52.638;9.216;2022-09-13T11:31:46;0.98;;;0.57;;
32032;SDS011;31720;52.638;9.216;2022-09-13T11:35:04;1.23;;;0.63;;
32032;SDS011;31720;52.638;9.216;2022-09-13T11:38:28;2.70;;;0.70;;
32032;SDS011;31720;52.638;9.216;2022-09-13T11:41:38;0.80;;;0.52;;
32032;SDS011;31720;52.638;9.216;2022-09-13T11:44:53;1.13;;;0.60;;
32032;SDS011;31720;52.638;9.216;2022-09-13T11:48:14;1.50;;;0.60;;
32032;SDS011;31720;52.638;9.216;2022-09-13T11:51:29;1.77;;;0.52;;
32032;SDS011;31720;52.638;9.216;2022-09-13T11:54:44;1.13;;;0.60;;
32032;SDS011;31720;52.638;9.216;2022-09-13T11:57:59;1.15;;;0.77;;
32032;SDS011;31720;52.638;9.216;2022-09-13T12:01:04;0.80;;;0.60;;
32032;SDS011;31720;52.638;9.216;2022-09-13T12:04:08;3.17;;;0.77;;
32032;SDS011;31720;52.638;9.216;2022-09-13T12:10:26;2.10;;;0.60;;
32032;SDS011;31720;52.638;9.216;2022-09-13T12:13:34;0.82;;;0.68;;
32032;SDS011;31720;52.638;9.216;2022-09-13T12:16:41;1.73;;;1.00;;
32032;SDS011;31720;52.638;9.216;2022-09-13T12:19:48;0.45;;;0.40;;
32032;SDS011;31720;52.638;9.216;2022-09-13T12:22:55;1.98;;;0.82;;
32032;SDS011;31720;52.638;9.216;2022-09-13T12:26:01;0.47;;;0.40;;
32032;SDS011;31720;52.638;9.216;2022-09-13T12:29:06;2.53;;;0.63;;
32032;SDS011;31720;52.638;9.216;2022-09-13T12:32:14;1.45;;;0.60;;
32032;SDS011;31720;52.638;9.216;2022-09-13T12:35:19;2.10;;;0.52;;
32032;SDS011;31720;52.638;9.216;2022-09-13T12:38:34;0.82;;;0.45;;
32032;SDS011;31720;52.638;9.216;2022-09-13T12:41:51;3.22;;;0.60;;
32032;SDS011;31720;52.638;9.216;2022-09-13T12:45:12;1.30;;;0.52;;
32032;SDS011;31720;52.638;9.216;2022-09-13T12:48:26;1.25;;;0.77;;
32032;SDS011;31720;52.638;9.216;2022-09-13T12:51:44;1.75;;;0.60;;
32032;SDS011;31720;52.638;9.216;2022-09-13T12:58:41;1.77;;;0.50;;
32032;SDS011;31720;52.638;9.216;2022-09-13T13:01:54;1.20;;;0.73;;
32032;SDS011;31720;52.638;9.216;2022-09-13T13:04:57;0.98;;;0.60;;
32032;SDS011;31720;52.638;9.216;2022-09-13T13:08:02;0.75;;;0.40;;
32032;SDS011;31720;52.638;9.216;2022-09-13T13:11:07;2.25;;;0.90;;
32032;SDS011;31720;52.638;9.216;2022-09-13T13:14:28;0.40;;;0.38;;
32032;SDS011;31720;52.638;9.216;2022-09-13T13:17:45;0.70;;;0.60;;
32032;SDS011;31720;52.638;9.216;2022-09-13T13:21:03;5.60;;;0.88;;
32032;SDS011;31720;52.638;9.216;2022-09-13T13:24:42;1.10;;;0.60;;
32032;SDS011;31720;52.638;9.216;2022-09-13T13:27:48;1.02;;;0.40;;
32032;SDS011;31720;52.638;9.216;2022-09-13T13:30:53;0.30;;;0.30;;
32032;SDS011;31720;52.638;9.216;2022-09-13T13:33:57;0.50;;;0.40;;
32032;SDS011;31720;52.638;9.216;2022-09-13T13:37:01;1.75;;;0.40;;
32032;SDS011;31720;52.638;9.216;2022-09-13T13:43:35;1.05;;;0.50;;
32032;SDS011;31720;52.638;9.216;2022-09-13T13:46:36;0.45;;;0.35;;
32032;SDS011;31720;52.638;9.216;2022-09-13T13:49:42;0.50;;;0.50;;
32032;SDS011;31720;52.638;9.216;2022-09-13T13:52:52;4.20;;;0.40;;
32032;SDS011;31720;52.638;9.216;2022-09-13T13:56:05;0.30;;;0.20;;
32032;SDS011;31720;52.638;9.216;2022-09-13T13:59:18;0.88;;;0.30;;
32032;SDS011;31720;52.638;9.216;2022-09-13T14:02:30;0.43;;;0.32;;
32032;SDS011;31720;52.638;9.216;2022-09-13T14:05:40;1.25;;;0.40;;
32032;SDS011;31720;52.638;9.216;2022-09-13T14:08:53;2.55;;;0.43;;
32032;SDS011;31720;52.638;9.216;2022-09-13T14:12:12;0.35;;;0.35;;
32032;SDS011;31720;52.638;9.216;2022-09-13T14:15:25;3.30;;;0.30;;
32032;SDS011;31720;52.638;9.216;2022-09-13T14:22:23;0.57;;;0.40;;
32032;SDS011;31720;52.638;9.216;2022-09-13T14:25:26;2.13;;;0.40;;
32032;SDS011;31720;52.638;9.216;2022-09-13T14:28:27;0.90;;;0.70;;
32032;SDS011;31720;52.638;9.216;2022-09-13T14:31:30;0.52;;;0.43;;
32032;SDS011;31720;52.638;9.216;2022-09-13T14:34:33;0.57;;;0.50;;
32032;SDS011;31720;52.638;9.216;2022-09-13T14:37:36;0.77;;;0.30;;
32032;SDS011;31720;52.638;9.216;2022-09-13T14:40:39;1.42;;;0.35;;
32032;SDS011;31720;52.638;9.216;2022-09-13T14:43:41;1.95;;;0.30;;
32032;SDS011;31720;52.638;9.216;2022-09-13T14:46:45;2.72;;;0.60;;
32032;SDS011;31720;52.638;9.216;2022-09-13T14:49:53;0.50;;;0.30;;
32032;SDS011;31720;52.638;9.216;2022-09-13T14:53:00;3.40;;;0.63;;
32032;SDS011;31720;52.638;9.216;2022-09-13T14:56:04;2.65;;;0.30;;
32032;SDS011;31720;52.638;9.216;2022-09-13T14:59:11;1.98;;;0.40;;
32032;SDS011;31720;52.638;9.216;2022-09-13T15:02:17;1.35;;;0.57;;
32032;SDS011;31720;52.638;9.216;2022-09-13T15:05:21;0.50;;;0.40;;
32032;SDS011;31720;52.638;9.216;2022-09-13T15:08:26;2.45;;;0.30;;
32032;SDS011;31720;52.638;9.216;2022-09-13T15:11:41;0.95;;;0.30;;
32032;SDS011;31720;52.638;9.216;2022-09-13T15:15:20;2.35;;;0.20;;
32032;SDS011;31720;52.638;9.216;2022-09-13T15:18:32;2.75;;;0.43;;
32032;SDS011;31720;52.638;9.216;2022-09-13T15:21:34;4.65;;;0.98;;
32032;SDS011;31720;52.638;9.216;2022-09-13T15:24:36;0.75;;;0.30;;
32032;SDS011;31720;52.638;9.216;2022-09-13T15:27:42;1.90;;;0.40;;
32032;SDS011;31720;52.638;9.216;2022-09-13T15:30:45;2.05;;;0.40;;
32032;SDS011;31720;52.638;9.216;2022-09-13T15:33:47;4.13;;;0.32;;
32032;SDS011;31720;52.638;9.216;2022-09-13T15:37:00;0.40;;;0.30;;
32032;SDS011;31720;52.638;9.216;2022-09-13T15:40:15;2.50;;;0.52;;
32032;SDS011;31720;52.638;9.216;2022-09-13T15:43:19;2.58;;;0.30;;
32032;SDS011;31720;52.638;9.216;2022-09-13T15:46:20;0.60;;;0.40;;
32032;SDS011;31720;52.638;9.216;2022-09-13T15:49:24;0.28;;;0.28;;
32032;SDS011;31720;52.638;9.216;2022-09-13T15:52:27;4.47;;;0.40;;
32032;SDS011;31720;52.638;9.216;2022-09-13T15:55:28;0.28;;;0.28;;
32032;SDS011;31720;52.638;9.216;2022-09-13T15:58:31;5.72;;;0.60;;
32032;SDS011;31720;52.638;9.216;2022-09-13T16:01:34;3.55;;;0.40;;
32032;SDS011;31720;52.638;9.216;2022-09-13T16:04:37;1.98;;;0.40;;
32032;SDS011;31720;52.638;9.216;2022-09-13T16:07:39;1.77;;;0.50;;
32032;SDS011;31720;52.638;9.216;2022-09-13T16:10:41;0.98;;;0.30;;
32032;SDS011;31720;52.638;9.216;2022-09-13T16:13:42;2.80;;;0.73;;
32032;SDS011;31720;52.638;9.216;2022-09-13T16:16:44;4.97;;;1.10;;
32032;SDS011;31720;52.638;9.216;2022-09-13T16:19:47;1.80;;;0.40;;
32032;SDS011;31720;52.638;9.216;2022-09-13T16:22:48;3.63;;;0.52;;
32032;SDS011;31720;52.638;9.216;2022-09-13T16:25:50;1.67;;;0.55;;
32032;SDS011;31720;52.638;9.216;2022-09-13T16:28:54;0.88;;;0.50;;
32032;SDS011;31720;52.638;9.216;2022-09-13T16:31:55;2.20;;;0.40;;
32032;SDS011;31720;52.638;9.216;2022-09-13T16:35:00;2.05;;;0.60;;
32032;SDS011;31720;52.638;9.216;2022-09-13T16:38:01;1.83;;;0.40;;
32032;SDS011;31720;52.638;9.216;2022-09-13T16:41:03;1.70;;;0.50;;
32032;SDS011;31720;52.638;9.216;2022-09-13T16:44:04;3.38;;;0.57;;
32032;SDS011;31720;52.638;9.216;2022-09-13T16:47:06;1.58;;;0.40;;
32032;SDS011;31720;52.638;9.216;2022-09-13T16:50:09;0.52;;;0.40;;
32032;SDS011;31720;52.638;9.216;2022-09-13T16:53:10;2.15;;;0.60;;
32032;SDS011;31720;52.638;9.216;2022-09-13T16:56:13;2.08;;;0.52;;
32032;SDS011;31720;52.638;9.216;2022-09-13T16:59:15;3.40;;;0.60;;
32032;SDS011;31720;52.638;9.216;2022-09-13T17:02:17;0.70;;;0.40;;
32032;SDS011;31720;52.638;9.216;2022-09-13T17:05:20;0.73;;;0.28;;
32032;SDS011;31720;52.638;9.216;2022-09-13T17:08:22;3.05;;;0.68;;
32032;SDS011;31720;52.638;9.216;2022-09-13T17:11:24;4.95;;;0.60;;
32032;SDS011;31720;52.638;9.216;2022-09-13T17:14:26;1.35;;;0.55;;
32032;SDS011;31720;52.638;9.216;2022-09-13T17:17:28;1.70;;;0.77;;
32032;SDS011;31720;52.638;9.216;2022-09-13T17:20:34;2.30;;;0.63;;
32032;SDS011;31720;52.638;9.216;2022-09-13T17:23:35;2.67;;;0.60;;
32032;SDS011;31720;52.638;9.216;2022-09-13T17:26:36;4.95;;;0.50;;
32032;SDS011;31720;52.638;9.216;2022-09-13T17:29:38;3.25;;;0.52;;
32032;SDS011;31720;52.638;9.216;2022-09-13T17:32:40;2.20;;;0.60;;
32032;SDS011;31720;52.638;9.216;2022-09-13T17:35:43;0.70;;;0.47;;
32032;SDS011;31720;52.638;9.216;2022-09-13T17:38:44;1.00;;;0.60;;
32032;SDS011;31720;52.638;9.216;2022-09-13T17:41:46;1.33;;;0.40;;
32032;SDS011;31720;52.638;9.216;2022-09-13T17:44:48;4.32;;;0.70;;
32032;SDS011;31720;52.638;9.216;2022-09-13T17:47:51;2.05;;;0.40;;
32032;SDS011;31720;52.638;9.216;2022-09-13T17:50:53;2.78;;;0.43;;
32032;SDS011;31720;52.638;9.216;2022-09-13T17:54:01;1.95;;;0.45;;
32032;SDS011;31720;52.638;9.216;2022-09-13T17:57:04;0.30;;;0.30;;
32032;SDS011;31720;52.638;9.216;2022-09-13T18:00:06;4.78;;;1.63;;
32032;SDS011;31720;52.638;9.216;2022-09-13T18:03:09;5.30;;;0.60;;
32032;SDS011;31720;52.638;9.216;2022-09-13T18:06:11;2.47;;;0.70;;
32032;SDS011;31720;52.638;9.216;2022-09-13T18:09:14;3.05;;;0.40;;
32032;SDS011;31720;52.638;9.216;2022-09-13T18:12:15;3.97;;;0.70;;
32032;SDS011;31720;52.638;9.216;2022-09-13T18:15:16;1.27;;;0.45;;
32032;SDS011;31720;52.638;9.216;2022-09-13T18:18:18;1.30;;;0.43;;
32032;SDS011;31720;52.638;9.216;2022-09-13T18:21:21;3.08;;;0.70;;
32032;SDS011;31720;52.638;9.216;2022-09-13T18:24:24;2.63;;;0.80;;
32032;SDS011;31720;52.638;9.216;2022-09-13T18:27:25;2.90;;;0.60;;
32032;SDS011;31720;52.638;9.216;2022-09-13T18:30:27;4.05;;;0.80;;
32032;SDS011;31720;52.638;9.216;2022-09-13T18:33:28;3.67;;;0.50;;
32032;SDS011;31720;52.638;9.216;2022-09-13T18:36:31;2.22;;;0.57;;
32032;SDS011;31720;52.638;9.216;2022-09-13T18:39:33;3.40;;;1.08;;
32032;SDS011;31720;52.638;9.216;2022-09-13T18:42:35;5.85;;;0.80;;
32032;SDS011;31720;52.638;9.216;2022-09-13T18:45:36;1.73;;;0.55;;
32032;SDS011;31720;52.638;9.216;2022-09-13T18:48:38;1.13;;;0.50;;
32032;SDS011;31720;52.638;9.216;2022-09-13T18:51:43;3.88;;;0.63;;